createdAt,value
2018-04-24T00:00:51.153Z,12.36
2018-04-24T00:01:51.155Z,12.29
2018-04-24T00:02:51.150Z,12.32
2018-04-24T00:03:51.149Z,12.32
2018-04-24T00:04:51.147Z,12.21
2018-04-24T00:05:51.147Z,12.24
2018-04-24T00:06:51.147Z,12.31
2018-04-24T00:07:51.143Z,12.25
2018-04-24T00:08:51.145Z,12.32
2018-04-24T00:09:51.160Z,12.24
2018-04-24T00:10:51.142Z,12.24
2018-04-24T00:11:51.163Z,12.22
2018-04-24T00:12:51.142Z,12.22
2018-04-24T00:13:51.136Z,12.25
2018-04-24T00:14:51.185Z,12.24
2018-04-24T00:15:51.138Z,12.24
2018-04-24T00:16:51.174Z,12.22
2018-04-24T00:17:51.133Z,12.17
2018-04-24T00:18:51.178Z,12.20
2018-04-24T00:19:51.131Z,12.18
2018-04-24T00:20:51.130Z,12.13
2018-04-24T00:21:51.127Z,12.17
2018-04-24T00:22:51.130Z,12.13
2018-04-24T00:23:51.136Z,12.07
2018-04-24T00:24:51.123Z,12.07
2018-04-24T00:25:51.120Z,12.02
2018-04-24T00:26:51.123Z,12.13
2018-04-24T00:27:51.119Z,12.09
2018-04-24T00:28:51.118Z,12.07
2018-04-24T00:29:51.116Z,12.12
2018-04-24T00:30:51.116Z,12.06
2018-04-24T00:31:51.120Z,12.06
2018-04-24T00:32:51.113Z,11.99
2018-04-24T00:33:51.124Z,12.06
2018-04-24T00:34:51.110Z,11.97
2018-04-24T00:35:51.113Z,12.04
2018-04-24T00:36:51.116Z,12.07
2018-04-24T00:37:51.107Z,12.04
2018-04-24T00:38:51.112Z,12.02
2018-04-24T00:39:51.118Z,12.06
2018-04-24T00:40:51.103Z,12.07
2018-04-24T00:41:51.101Z,12.06
2018-04-24T00:42:51.123Z,12.04
2018-04-24T00:43:51.099Z,12.03
2018-04-24T00:44:51.097Z,12.06
2018-04-24T00:45:51.146Z,12.03
2018-04-24T00:46:51.289Z,11.95
2018-04-24T00:47:51.097Z,11.95
2018-04-24T00:48:51.094Z,11.91
2018-04-24T00:49:51.091Z,11.88
2018-04-24T00:50:51.090Z,11.86
2018-04-24T00:51:51.092Z,12.02
2018-04-24T00:52:51.091Z,11.87
2018-04-24T00:53:51.106Z,11.94
2018-04-24T00:54:51.082Z,11.90
2018-04-24T00:55:51.084Z,11.91
2018-04-24T00:56:51.080Z,11.90
2018-04-24T00:57:51.080Z,11.86
2018-04-24T00:58:51.077Z,11.87
2018-04-24T00:59:51.075Z,12.00
2018-04-24T01:00:51.078Z,11.91
2018-04-24T01:01:51.078Z,11.97
2018-04-24T01:02:51.071Z,11.94
2018-04-24T01:03:51.070Z,11.91
2018-04-24T01:04:51.070Z,11.87
2018-04-24T01:05:51.070Z,11.91
2018-04-24T01:06:51.134Z,11.81
2018-04-24T01:07:51.065Z,11.77
2018-04-24T01:08:51.066Z,11.86
2018-04-24T01:09:51.060Z,11.80
2018-04-24T01:10:51.066Z,11.81
2018-04-24T01:11:51.060Z,11.88
2018-04-24T01:12:51.058Z,11.84
2018-04-24T01:13:51.059Z,11.86
2018-04-24T01:14:51.053Z,11.84
2018-04-24T01:15:51.051Z,11.77
2018-04-24T01:16:51.054Z,11.75
2018-04-24T01:17:51.669Z,11.78
2018-04-24T01:18:51.050Z,11.75
2018-04-24T01:19:51.048Z,11.81
2018-04-24T01:20:51.044Z,11.80
2018-04-24T01:21:51.043Z,11.70
2018-04-24T01:22:51.042Z,11.70
2018-04-24T01:23:51.043Z,11.75
2018-04-24T01:24:51.038Z,11.78
2018-04-24T01:25:51.038Z,11.73
2018-04-24T01:26:51.039Z,11.78
2018-04-24T01:27:51.034Z,11.69
2018-04-24T01:28:51.035Z,11.75
2018-04-24T01:29:51.029Z,11.75
2018-04-24T01:30:51.027Z,11.70
2018-04-24T01:31:51.031Z,11.70
2018-04-24T01:32:51.027Z,11.66
2018-04-24T01:33:51.023Z,11.65
2018-04-24T01:34:51.022Z,11.72
2018-04-24T01:35:51.021Z,11.73
2018-04-24T01:36:51.022Z,11.65
2018-04-24T01:37:51.015Z,11.68
2018-04-24T01:38:51.021Z,11.66
2018-04-24T01:39:51.017Z,11.65
2018-04-24T01:40:51.013Z,11.65
2018-04-24T01:41:51.029Z,11.65
2018-04-24T01:42:51.008Z,11.63
2018-04-24T01:43:51.008Z,11.69
2018-04-24T01:44:51.004Z,11.68
2018-04-24T01:45:51.004Z,11.68
2018-04-24T01:46:51.009Z,11.63
2018-04-24T01:47:50.998Z,11.63
2018-04-24T01:48:50.999Z,11.59
2018-04-24T01:49:50.995Z,11.62
2018-04-24T01:50:50.993Z,11.66
2018-04-24T01:51:50.991Z,11.68
2018-04-24T01:52:50.990Z,11.68
2018-04-24T01:53:50.990Z,11.70
2018-04-24T01:54:50.988Z,11.75
2018-04-24T01:55:50.985Z,11.77
2018-04-24T01:56:50.989Z,11.73
2018-04-24T01:57:50.981Z,11.68
2018-04-24T01:58:50.981Z,11.66
2018-04-24T01:59:50.978Z,11.68
2018-04-24T02:00:50.984Z,11.69
2018-04-24T02:01:50.979Z,11.73
2018-04-24T02:02:50.972Z,11.60
2018-04-24T02:03:50.990Z,11.65
2018-04-24T02:04:50.968Z,11.63
2018-04-24T02:05:50.966Z,11.60
2018-04-24T02:06:50.968Z,11.54
2018-04-24T02:07:50.963Z,11.62
2018-04-24T02:08:50.966Z,11.62
2018-04-24T02:09:50.959Z,11.60
2018-04-24T02:10:50.957Z,11.60
2018-04-24T02:11:50.962Z,11.68
2018-04-24T02:12:50.955Z,11.62
2018-04-24T02:13:50.956Z,11.66
2018-04-24T02:14:50.953Z,11.66
2018-04-24T02:15:50.948Z,11.70
2018-04-24T02:16:50.945Z,11.66
2018-04-24T02:17:50.946Z,11.70
2018-04-24T02:18:50.942Z,11.70
2018-04-24T02:19:50.942Z,11.77
2018-04-24T02:20:50.939Z,11.80
2018-04-24T02:21:50.936Z,11.75
2018-04-24T02:22:50.935Z,11.80
2018-04-24T02:23:50.933Z,11.83
2018-04-24T02:24:50.933Z,11.78
2018-04-24T02:25:50.935Z,11.80
2018-04-24T02:26:50.928Z,11.77
2018-04-24T02:27:50.929Z,11.77
2018-04-24T02:28:50.924Z,11.73
2018-04-24T02:29:50.925Z,11.75
2018-04-24T02:30:50.923Z,11.75
2018-04-24T02:31:50.929Z,11.73
2018-04-24T02:32:50.923Z,11.77
2018-04-24T02:33:50.917Z,11.81
2018-04-24T02:34:50.915Z,11.87
2018-04-24T02:35:50.914Z,11.78
2018-04-24T02:36:50.954Z,11.83
2018-04-24T02:37:50.916Z,11.81
2018-04-24T02:38:50.913Z,11.80
2018-04-24T02:39:50.911Z,11.80
2018-04-24T02:40:50.905Z,11.87
2018-04-24T02:41:50.907Z,11.78
2018-04-24T02:42:50.907Z,11.80
2018-04-24T02:43:50.902Z,11.78
2018-04-24T02:44:50.914Z,11.75
2018-04-24T02:45:50.897Z,11.77
2018-04-24T02:46:51.009Z,11.72
2018-04-24T02:47:50.894Z,11.70
2018-04-24T02:48:50.890Z,11.66
2018-04-24T02:49:50.890Z,11.60
2018-04-24T02:50:50.888Z,11.68
2018-04-24T02:51:50.889Z,11.70
2018-04-24T02:52:50.883Z,11.63
2018-04-24T02:53:50.881Z,11.62
2018-04-24T02:54:50.880Z,11.65
2018-04-24T02:55:50.878Z,11.65
2018-04-24T02:56:50.883Z,11.66
2018-04-24T02:57:50.874Z,11.63
2018-04-24T02:58:50.875Z,11.63
2018-04-24T02:59:50.874Z,11.60
2018-04-24T03:00:50.870Z,11.63
2018-04-24T03:01:50.867Z,11.65
2018-04-24T03:02:50.865Z,11.65
2018-04-24T03:03:50.867Z,11.63
2018-04-24T03:04:50.861Z,11.59
2018-04-24T03:05:50.859Z,11.60
2018-04-24T03:06:50.862Z,11.60
2018-04-24T03:07:50.856Z,11.60
2018-04-24T03:08:50.857Z,11.57
2018-04-24T03:09:50.852Z,11.63
2018-04-24T03:10:50.867Z,11.65
2018-04-24T03:11:50.934Z,11.62
2018-04-24T03:12:50.846Z,11.73
2018-04-24T03:13:50.844Z,11.70
2018-04-24T03:14:50.841Z,11.72
2018-04-24T03:15:50.840Z,11.72
2018-04-24T03:16:50.837Z,11.69
2018-04-24T03:17:50.835Z,11.57
2018-04-24T03:18:50.838Z,11.60
2018-04-24T03:19:50.831Z,11.59
2018-04-24T03:20:51.233Z,11.59
2018-04-24T03:21:50.829Z,11.69
2018-04-24T03:22:50.825Z,11.70
2018-04-24T03:23:50.825Z,11.77
2018-04-24T03:24:50.825Z,11.80
2018-04-24T03:25:50.821Z,11.73
2018-04-24T03:26:50.826Z,11.75
2018-04-24T03:27:50.826Z,11.77
2018-04-24T03:28:50.817Z,11.86
2018-04-24T03:29:50.815Z,11.72
2018-04-24T03:30:50.811Z,11.78
2018-04-24T03:31:50.809Z,11.70
2018-04-24T03:32:50.808Z,11.72
2018-04-24T03:33:50.805Z,11.72
2018-04-24T03:34:50.804Z,11.72
2018-04-24T03:35:50.801Z,11.70
2018-04-24T03:36:50.800Z,11.69
2018-04-24T03:37:50.799Z,11.68
2018-04-24T03:38:50.798Z,11.73
2018-04-24T03:39:50.793Z,11.70
2018-04-24T03:40:50.794Z,11.72
2018-04-24T03:41:50.794Z,11.66
2018-04-24T03:42:50.787Z,11.80
2018-04-24T03:43:50.787Z,11.72
2018-04-24T03:44:50.789Z,11.77
2018-04-24T03:45:50.784Z,11.73
2018-04-24T03:46:50.784Z,11.77
2018-04-24T03:47:50.779Z,11.80
2018-04-24T03:48:50.776Z,11.87
2018-04-24T03:49:50.773Z,11.80
2018-04-24T03:50:50.773Z,11.81
2018-04-24T03:51:51.619Z,11.75
2018-04-24T03:52:50.769Z,11.83
2018-04-24T03:53:50.767Z,11.81
2018-04-24T03:54:50.767Z,11.72
2018-04-24T03:55:50.765Z,11.70
2018-04-24T03:56:50.761Z,11.75
2018-04-24T03:57:50.764Z,11.77
2018-04-24T03:58:50.759Z,11.70
2018-04-24T03:59:50.755Z,11.75
2018-04-24T04:00:50.761Z,11.75
2018-04-24T04:01:50.751Z,11.80
2018-04-24T04:02:50.756Z,11.83
2018-04-24T04:03:50.747Z,11.84
2018-04-24T04:04:50.746Z,11.81
2018-04-24T04:05:50.745Z,11.77
2018-04-24T04:06:50.746Z,11.81
2018-04-24T04:07:50.741Z,11.84
2018-04-24T04:08:50.737Z,11.86
2018-04-24T04:09:50.740Z,11.81
2018-04-24T04:10:50.736Z,11.90
2018-04-24T04:11:50.733Z,11.84
2018-04-24T04:12:50.737Z,11.88
2018-04-24T04:13:50.743Z,11.88
2018-04-24T04:14:50.779Z,11.90
2018-04-24T04:15:50.742Z,11.87
2018-04-24T04:16:50.724Z,11.88
2018-04-24T04:17:50.725Z,11.90
2018-04-24T04:18:50.719Z,11.91
2018-04-24T04:19:50.719Z,11.88
2018-04-24T04:20:50.717Z,11.94
2018-04-24T04:21:50.724Z,11.88
2018-04-24T04:22:50.713Z,11.86
2018-04-24T04:23:50.712Z,11.91
2018-04-24T04:24:50.709Z,11.94
2018-04-24T04:25:50.722Z,11.87
2018-04-24T04:26:50.715Z,11.86
2018-04-24T04:27:50.704Z,11.86
2018-04-24T04:28:50.703Z,11.91
2018-04-24T04:29:50.703Z,11.77
2018-04-24T04:30:50.698Z,11.80
2018-04-24T04:31:50.699Z,11.75
2018-04-24T04:32:50.722Z,11.83
2018-04-24T04:33:50.695Z,11.77
2018-04-24T04:34:50.691Z,11.73
2018-04-24T04:35:50.689Z,11.69
2018-04-24T04:36:50.690Z,11.62
2018-04-24T04:37:50.693Z,11.73
2018-04-24T04:38:50.691Z,11.63
2018-04-24T04:39:50.683Z,11.65
2018-04-24T04:40:50.689Z,11.69
2018-04-24T04:41:50.680Z,11.73
2018-04-24T04:42:50.677Z,11.75
2018-04-24T04:43:50.679Z,11.75
2018-04-24T04:44:50.681Z,11.75
2018-04-24T04:45:50.680Z,11.77
2018-04-24T04:46:50.670Z,11.80
2018-04-24T04:47:50.676Z,11.72
2018-04-24T04:48:50.667Z,11.70
2018-04-24T04:49:50.681Z,11.75
2018-04-24T04:50:50.679Z,11.73
2018-04-24T04:51:50.663Z,11.81
2018-04-24T04:52:50.658Z,11.75
2018-04-24T04:53:50.657Z,11.80
2018-04-24T04:54:50.654Z,11.73
2018-04-24T04:55:50.653Z,11.73
2018-04-24T04:56:50.655Z,11.75
2018-04-24T04:57:50.653Z,11.70
2018-04-24T04:58:50.647Z,11.68
2018-04-24T04:59:50.645Z,11.73
2018-04-24T05:00:50.715Z,11.72
2018-04-24T05:01:50.644Z,11.72
2018-04-24T05:02:50.646Z,11.73
2018-04-24T05:03:50.638Z,11.77
2018-04-24T05:04:50.657Z,11.84
2018-04-24T05:05:50.634Z,11.81
2018-04-24T05:06:50.631Z,11.81
2018-04-24T05:07:50.631Z,11.83
2018-04-24T05:08:50.630Z,11.88
2018-04-24T05:09:50.627Z,11.88
2018-04-24T05:10:50.625Z,12.00
2018-04-24T05:11:50.624Z,11.99
2018-04-24T05:12:50.622Z,12.03
2018-04-24T05:13:50.619Z,12.06
2018-04-24T05:14:50.630Z,12.07
2018-04-24T05:15:50.615Z,12.10
2018-04-24T05:16:50.613Z,12.20
2018-04-24T05:17:50.620Z,12.27
2018-04-24T05:18:50.611Z,12.22
2018-04-24T05:19:50.609Z,12.28
2018-04-24T05:20:50.610Z,12.42
2018-04-24T05:21:50.726Z,12.43
2018-04-24T05:22:50.607Z,12.47
2018-04-24T05:23:50.777Z,12.49
2018-04-24T05:24:50.600Z,12.46
2018-04-24T05:25:50.600Z,12.47
2018-04-24T05:26:50.608Z,12.49
2018-04-24T05:27:50.599Z,12.57
2018-04-24T05:28:50.595Z,12.60
2018-04-24T05:29:50.593Z,12.62
2018-04-24T05:30:50.599Z,12.60
2018-04-24T05:31:50.590Z,12.60
2018-04-24T05:32:50.590Z,12.60
2018-04-24T05:33:50.604Z,12.58
2018-04-24T05:34:50.863Z,12.55
2018-04-24T05:35:50.699Z,12.67
2018-04-24T05:36:50.588Z,12.61
2018-04-24T05:37:50.587Z,12.61
2018-04-24T05:38:50.581Z,12.61
2018-04-24T05:39:50.583Z,12.73
2018-04-24T05:40:50.585Z,12.76
2018-04-24T05:41:50.602Z,12.75
2018-04-24T05:42:50.574Z,12.83
2018-04-24T05:43:50.577Z,12.93
2018-04-24T05:44:50.583Z,13.00
2018-04-24T05:45:50.576Z,12.97
2018-04-24T05:46:50.569Z,13.00
2018-04-24T05:47:50.569Z,13.19
2018-04-24T05:48:50.569Z,13.16
2018-04-24T05:49:50.565Z,13.05
2018-04-24T05:50:50.567Z,13.18
2018-04-24T05:51:50.564Z,13.15
2018-04-24T05:52:50.639Z,13.20
2018-04-24T05:53:50.562Z,13.28
2018-04-24T05:54:51.153Z,13.27
2018-04-24T05:55:50.562Z,13.38
2018-04-24T05:56:50.559Z,13.39
2018-04-24T05:57:50.560Z,13.44
2018-04-24T05:58:50.561Z,13.49
2018-04-24T05:59:50.556Z,13.47
2018-04-24T06:00:50.583Z,13.49
2018-04-24T06:01:50.557Z,13.56
2018-04-24T06:02:50.556Z,13.59
2018-04-24T06:03:50.553Z,13.56
2018-04-24T06:04:50.563Z,13.53
2018-04-24T06:05:50.554Z,13.52
2018-04-24T06:06:50.566Z,13.47
2018-04-24T06:07:50.551Z,13.57
2018-04-24T06:08:50.552Z,13.65
2018-04-24T06:09:50.560Z,13.60
2018-04-24T06:10:50.560Z,13.67
2018-04-24T06:11:50.550Z,13.74
2018-04-24T06:12:50.548Z,13.71
2018-04-24T06:13:50.548Z,13.81
2018-04-24T06:14:50.548Z,13.85
2018-04-24T06:15:50.545Z,13.93
2018-04-24T06:16:50.548Z,14.04
2018-04-24T06:17:50.543Z,14.12
2018-04-24T06:18:50.544Z,14.12
2018-04-24T06:19:50.546Z,14.17
2018-04-24T06:20:50.549Z,14.23
2018-04-24T06:21:50.542Z,14.22
2018-04-24T06:22:50.542Z,14.35
2018-04-24T06:23:50.545Z,14.25
2018-04-24T06:24:50.543Z,14.30
2018-04-24T06:25:50.542Z,14.23
2018-04-24T06:26:50.545Z,14.30
2018-04-24T06:27:50.544Z,14.26
2018-04-24T06:28:50.541Z,14.23
2018-04-24T06:29:50.615Z,14.23
2018-04-24T06:30:50.541Z,14.33
2018-04-24T06:31:50.539Z,14.37
2018-04-24T06:32:50.547Z,14.37
2018-04-24T06:33:50.539Z,14.36
2018-04-24T06:34:50.541Z,14.36
2018-04-24T06:35:50.539Z,14.36
2018-04-24T06:36:50.544Z,14.45
2018-04-24T06:37:50.539Z,14.43
2018-04-24T06:38:50.541Z,14.40
2018-04-24T06:39:50.538Z,14.48
2018-04-24T06:40:50.546Z,14.50
2018-04-24T06:41:50.570Z,14.47
2018-04-24T06:42:50.540Z,14.55
2018-04-24T06:43:50.537Z,14.58
2018-04-24T06:44:50.539Z,14.55
2018-04-24T06:45:50.538Z,14.59
2018-04-24T06:46:50.537Z,14.58
2018-04-24T06:47:50.610Z,14.63
2018-04-24T06:48:50.538Z,14.63
2018-04-24T06:49:50.541Z,14.60
2018-04-24T06:50:50.545Z,14.78
2018-04-24T06:51:50.590Z,14.72
2018-04-24T06:52:50.537Z,14.81
2018-04-24T06:53:50.540Z,14.78
2018-04-24T06:54:50.543Z,14.88
2018-04-24T06:55:50.542Z,14.92
2018-04-24T06:56:50.547Z,15.02
2018-04-24T06:57:50.542Z,15.03
2018-04-24T06:58:50.537Z,15.10
2018-04-24T06:59:50.541Z,15.11
2018-04-24T07:00:50.545Z,15.15
2018-04-24T07:01:50.540Z,15.15
2018-04-24T07:02:50.536Z,15.21
2018-04-24T07:03:50.540Z,15.35
2018-04-24T07:04:50.544Z,15.33
2018-04-24T07:05:50.540Z,15.42
2018-04-24T07:06:50.541Z,15.51
2018-04-24T07:07:50.545Z,15.62
2018-04-24T07:08:50.539Z,15.72
2018-04-24T07:09:50.537Z,15.82
2018-04-24T07:10:50.544Z,15.83
2018-04-24T07:11:50.541Z,15.91
2018-04-24T07:12:50.556Z,15.91
2018-04-24T07:13:50.544Z,16.04
2018-04-24T07:14:50.550Z,16.17
2018-04-24T07:15:50.546Z,16.23
2018-04-24T07:16:50.557Z,16.24
2018-04-24T07:17:50.544Z,16.29
2018-04-24T07:18:50.550Z,16.31
2018-04-24T07:19:50.551Z,16.33
2018-04-24T07:20:50.550Z,16.42
2018-04-24T07:21:50.557Z,16.35
2018-04-24T07:22:50.549Z,16.47
2018-04-24T07:23:50.576Z,16.49
2018-04-24T07:24:50.550Z,16.50
2018-04-24T07:25:50.555Z,16.50
2018-04-24T07:26:50.556Z,16.53
2018-04-24T07:27:50.555Z,16.64
2018-04-24T07:28:50.559Z,16.69
2018-04-24T07:29:50.561Z,16.72
2018-04-24T07:30:50.571Z,16.81
2018-04-24T07:31:50.567Z,16.87
2018-04-24T07:32:50.647Z,16.91
2018-04-24T07:33:50.576Z,17.04
2018-04-24T07:34:50.563Z,17.02
2018-04-24T07:35:50.567Z,17.12
2018-04-24T07:36:50.586Z,17.06
2018-04-24T07:37:50.590Z,17.16
2018-04-24T07:38:50.569Z,17.16
2018-04-24T07:39:50.571Z,17.33
2018-04-24T07:40:50.573Z,17.27
2018-04-24T07:41:50.580Z,17.27
2018-04-24T07:42:50.574Z,17.29
2018-04-24T07:43:50.582Z,17.39
2018-04-24T07:44:50.589Z,17.38
2018-04-24T07:45:50.934Z,17.48
2018-04-24T07:46:50.679Z,17.63
2018-04-24T07:47:50.583Z,17.59
2018-04-24T07:48:50.585Z,17.54
2018-04-24T07:49:50.589Z,17.57
2018-04-24T07:50:50.588Z,17.67
2018-04-24T07:51:50.591Z,17.70
2018-04-24T07:52:50.760Z,17.82
2018-04-24T07:53:50.594Z,17.82
2018-04-24T07:54:50.597Z,17.90
2018-04-24T07:55:50.597Z,17.98
2018-04-24T07:56:50.599Z,17.94
2018-04-24T07:57:50.734Z,18.00
2018-04-24T07:58:50.606Z,18.10
2018-04-24T07:59:50.612Z,18.05
2018-04-24T08:00:50.609Z,18.16
2018-04-24T08:01:50.610Z,18.08
2018-04-24T08:02:50.620Z,18.05
2018-04-24T08:03:50.620Z,18.11
2018-04-24T08:04:50.657Z,18.11
2018-04-24T08:05:51.223Z,18.10
2018-04-24T08:06:50.626Z,18.25
2018-04-24T08:07:50.626Z,18.10
2018-04-24T08:08:50.639Z,18.23
2018-04-24T08:09:50.636Z,18.25
2018-04-24T08:10:50.635Z,18.15
2018-04-24T08:11:50.635Z,18.25
2018-04-24T08:12:50.641Z,18.26
2018-04-24T08:13:50.642Z,18.25
2018-04-24T08:14:50.648Z,18.20
2018-04-24T08:15:50.643Z,18.23
2018-04-24T08:16:50.645Z,18.23
2018-04-24T08:17:50.650Z,18.26
2018-04-24T08:18:50.649Z,18.31
2018-04-24T08:19:50.663Z,18.31
2018-04-24T08:20:50.660Z,18.31
2018-04-24T08:21:50.672Z,18.34
2018-04-24T08:22:50.678Z,18.45
2018-04-24T08:23:50.662Z,18.45
2018-04-24T08:24:50.664Z,18.58
2018-04-24T08:25:50.671Z,18.58
2018-04-24T08:26:50.741Z,18.65
2018-04-24T08:27:50.671Z,18.58
2018-04-24T08:28:51.189Z,18.74
2018-04-24T08:29:50.677Z,18.70
2018-04-24T08:30:52.656Z,18.75
2018-04-24T08:31:50.681Z,18.75
2018-04-24T08:32:50.708Z,18.83
2018-04-24T08:33:50.690Z,18.83
2018-04-24T08:34:50.695Z,18.77
2018-04-24T08:35:50.692Z,18.80
2018-04-24T08:36:50.697Z,18.88
2018-04-24T08:37:50.700Z,18.84
2018-04-24T08:38:50.728Z,19.00
2018-04-24T08:39:50.710Z,19.12
2018-04-24T08:40:50.716Z,19.18
2018-04-24T08:41:50.718Z,19.16
2018-04-24T08:42:50.713Z,19.27
2018-04-24T08:43:50.716Z,19.31
2018-04-24T08:44:50.718Z,19.31
2018-04-24T08:45:50.724Z,19.47
2018-04-24T08:46:50.727Z,19.59
2018-04-24T08:47:50.738Z,19.55
2018-04-24T08:48:50.737Z,19.55
2018-04-24T08:49:50.736Z,19.56
2018-04-24T08:50:50.737Z,19.59
2018-04-24T08:51:50.740Z,19.55
2018-04-24T08:52:50.744Z,19.56
2018-04-24T08:53:50.765Z,19.56
2018-04-24T08:54:50.755Z,19.59
2018-04-24T08:55:50.753Z,19.55
2018-04-24T08:56:50.764Z,19.76
2018-04-24T08:57:50.765Z,19.89
2018-04-24T08:58:50.762Z,20.07
2018-04-24T08:59:51.572Z,20.21
2018-04-24T09:00:50.772Z,20.34
2018-04-24T09:01:50.773Z,20.69
2018-04-24T09:02:50.777Z,20.97
2018-04-24T09:03:50.782Z,21.03
2018-04-24T09:04:50.794Z,21.20
2018-04-24T09:05:50.790Z,21.27
2018-04-24T09:06:50.793Z,21.35
2018-04-24T09:07:50.810Z,21.20
2018-04-24T09:08:50.803Z,21.03
2018-04-24T09:09:50.807Z,20.92
2018-04-24T09:10:50.814Z,20.77
2018-04-24T09:11:50.818Z,20.51
2018-04-24T09:12:50.824Z,20.34
2018-04-24T09:13:50.823Z,20.22
2018-04-24T09:14:50.891Z,20.22
2018-04-24T09:15:50.844Z,20.03
2018-04-24T09:16:50.832Z,19.94
2018-04-24T09:17:50.836Z,19.91
2018-04-24T09:18:50.845Z,19.96
2018-04-24T09:19:50.846Z,19.86
2018-04-24T09:20:50.893Z,19.89
2018-04-24T09:21:50.857Z,19.95
2018-04-24T09:22:50.865Z,20.00
2018-04-24T09:23:50.879Z,19.99
2018-04-24T09:24:50.862Z,20.06
2018-04-24T09:25:50.868Z,20.06
2018-04-24T09:26:50.961Z,20.07
2018-04-24T09:27:50.873Z,20.18
2018-04-24T09:28:50.882Z,20.24
2018-04-24T09:29:50.879Z,20.09
2018-04-24T09:30:50.887Z,20.10
2018-04-24T09:31:50.888Z,20.09
2018-04-24T09:32:50.890Z,20.10
2018-04-24T09:33:50.928Z,20.09
2018-04-24T09:34:50.924Z,20.19
2018-04-24T09:35:50.921Z,20.16
2018-04-24T09:36:50.908Z,20.22
2018-04-24T09:37:50.920Z,20.19
2018-04-24T09:38:50.920Z,20.21
2018-04-24T09:39:50.919Z,20.25
2018-04-24T09:40:50.922Z,20.14
2018-04-24T09:41:50.926Z,20.18
2018-04-24T09:42:50.930Z,20.22
2018-04-24T09:43:50.980Z,20.22
2018-04-24T09:44:50.949Z,20.22
2018-04-24T09:45:51.025Z,20.14
2018-04-24T09:46:50.953Z,20.22
2018-04-24T09:47:50.954Z,20.21
2018-04-24T09:48:50.958Z,20.18
2018-04-24T09:49:50.958Z,20.25
2018-04-24T09:50:50.966Z,20.22
2018-04-24T09:51:51.135Z,20.21
2018-04-24T09:52:50.986Z,20.36
2018-04-24T09:53:50.978Z,20.37
2018-04-24T09:54:50.976Z,20.47
2018-04-24T09:55:50.978Z,20.55
2018-04-24T09:56:51.363Z,20.60
2018-04-24T09:57:50.989Z,20.69
2018-04-24T09:58:50.998Z,20.75
2018-04-24T09:59:50.998Z,20.72
2018-04-24T10:00:51.003Z,20.72
2018-04-24T10:01:51.006Z,20.70
2018-04-24T10:02:51.007Z,20.85
2018-04-24T10:03:51.008Z,20.88
2018-04-24T10:04:51.014Z,21.02
2018-04-24T10:05:51.015Z,21.05
2018-04-24T10:06:51.031Z,21.03
2018-04-24T10:07:51.082Z,21.20
2018-04-24T10:08:51.032Z,21.17
2018-04-24T10:09:51.114Z,21.21
2018-04-24T10:10:51.041Z,21.21
2018-04-24T10:11:51.043Z,21.32
2018-04-24T10:12:51.053Z,21.45
2018-04-24T10:13:51.056Z,21.45
2018-04-24T10:14:51.081Z,21.50
2018-04-24T10:15:52.705Z,21.48
2018-04-24T10:16:52.688Z,21.50
2018-04-24T10:17:51.094Z,21.46
2018-04-24T10:18:51.092Z,21.57
2018-04-24T10:19:52.715Z,21.52
2018-04-24T10:20:51.111Z,21.61
2018-04-24T10:21:51.088Z,21.66
2018-04-24T10:22:51.091Z,21.64
2018-04-24T10:23:52.692Z,21.76
2018-04-24T10:24:51.121Z,21.88
2018-04-24T10:25:51.119Z,21.99
2018-04-24T10:26:51.330Z,22.04
2018-04-24T10:27:51.142Z,22.02
2018-04-24T10:28:51.116Z,21.96
2018-04-24T10:29:51.128Z,21.96
2018-04-24T10:30:51.147Z,22.02
2018-04-24T10:31:51.416Z,21.93
2018-04-24T10:32:51.150Z,21.95
2018-04-24T10:33:51.146Z,21.93
2018-04-24T10:34:51.148Z,22.02
2018-04-24T10:35:51.152Z,22.02
2018-04-24T10:36:51.155Z,22.04
2018-04-24T10:37:51.161Z,22.06
2018-04-24T10:38:51.172Z,22.07
2018-04-24T10:39:51.186Z,22.14
2018-04-24T10:40:51.184Z,22.14
2018-04-24T10:41:51.223Z,22.14
2018-04-24T10:42:51.194Z,22.13
2018-04-24T10:43:51.274Z,22.04
2018-04-24T10:44:51.204Z,22.17
2018-04-24T10:45:51.200Z,22.18
2018-04-24T10:46:51.207Z,21.98
2018-04-24T10:47:51.212Z,22.02
2018-04-24T10:48:51.227Z,21.93
2018-04-24T10:49:51.223Z,21.89
2018-04-24T10:50:51.229Z,21.91
2018-04-24T10:51:51.390Z,21.89
2018-04-24T10:52:51.294Z,21.83
2018-04-24T10:53:51.241Z,21.85
2018-04-24T10:54:51.371Z,21.91
2018-04-24T10:55:51.256Z,21.89
2018-04-24T10:56:51.260Z,21.88
2018-04-24T10:57:51.279Z,21.96
2018-04-24T10:58:51.276Z,22.06
2018-04-24T10:59:51.281Z,21.99
2018-04-24T11:00:51.282Z,22.14
2018-04-24T11:01:51.286Z,22.17
2018-04-24T11:02:51.312Z,22.10
2018-04-24T11:03:51.343Z,22.11
2018-04-24T11:04:51.317Z,22.13
2018-04-24T11:05:51.420Z,22.08
2018-04-24T11:06:51.365Z,22.17
2018-04-24T11:07:51.400Z,22.15
2018-04-24T11:08:51.391Z,22.10
2018-04-24T11:09:51.377Z,22.06
2018-04-24T11:10:51.389Z,22.14
2018-04-24T11:11:51.422Z,22.26
2018-04-24T11:12:51.349Z,22.18
2018-04-24T11:13:51.393Z,22.22
2018-04-24T11:14:51.362Z,22.18
2018-04-24T11:15:51.388Z,22.22
2018-04-24T11:16:51.377Z,22.26
2018-04-24T11:17:51.390Z,22.18
2018-04-24T11:18:51.433Z,22.25
2018-04-24T11:19:51.429Z,22.18
2018-04-24T11:20:51.424Z,22.20
2018-04-24T11:21:51.419Z,22.28
2018-04-24T11:22:51.438Z,22.23
2018-04-24T11:23:51.439Z,22.18
2018-04-24T11:24:51.427Z,22.17
2018-04-24T11:25:51.497Z,22.23
2018-04-24T11:26:51.453Z,22.26
2018-04-24T11:27:51.447Z,22.32
2018-04-24T11:28:51.436Z,22.35
2018-04-24T11:29:51.429Z,22.35
2018-04-24T11:30:51.431Z,22.29
2018-04-24T11:31:51.439Z,22.29
2018-04-24T11:32:51.454Z,22.33
2018-04-24T11:33:51.566Z,22.41
2018-04-24T11:34:51.448Z,22.35
2018-04-24T11:35:51.515Z,22.43
2018-04-24T11:36:51.465Z,22.48
2018-04-24T11:37:51.468Z,22.35
2018-04-24T11:38:51.474Z,22.30
2018-04-24T11:39:51.478Z,22.33
2018-04-24T11:40:51.482Z,22.36
2018-04-24T11:41:51.501Z,22.33
2018-04-24T11:42:51.491Z,22.38
2018-04-24T11:43:51.511Z,22.33
2018-04-24T11:44:51.503Z,22.36
2018-04-24T11:45:51.509Z,22.39
2018-04-24T11:46:51.511Z,22.43
2018-04-24T11:47:51.535Z,22.39
2018-04-24T11:48:51.524Z,22.41
2018-04-24T11:49:51.527Z,22.45
2018-04-24T11:50:51.534Z,22.48
2018-04-24T11:51:51.541Z,22.57
2018-04-24T11:52:51.543Z,22.57
2018-04-24T11:53:51.548Z,22.62
2018-04-24T11:54:51.562Z,22.60
2018-04-24T11:55:51.559Z,22.53
2018-04-24T11:56:51.588Z,22.59
2018-04-24T11:57:51.573Z,22.57
2018-04-24T11:58:51.580Z,22.53
2018-04-24T11:59:51.582Z,22.47
2018-04-24T12:00:51.594Z,22.43
2018-04-24T12:01:51.613Z,22.36
2018-04-24T12:02:51.609Z,22.28
2018-04-24T12:03:51.727Z,22.26
2018-04-24T12:04:52.032Z,22.22
2018-04-24T12:05:51.611Z,22.18
2018-04-24T12:06:51.616Z,22.20
2018-04-24T12:07:51.624Z,22.22
2018-04-24T12:08:51.660Z,22.23
2018-04-24T12:09:51.633Z,22.20
2018-04-24T12:10:51.714Z,22.25
2018-04-24T12:11:51.643Z,22.11
2018-04-24T12:12:52.070Z,22.11
2018-04-24T12:13:51.651Z,22.15
2018-04-24T12:14:51.702Z,22.14
2018-04-24T12:15:51.666Z,22.11
2018-04-24T12:16:51.668Z,22.13
2018-04-24T12:17:51.671Z,22.14
2018-04-24T12:18:51.676Z,22.04
2018-04-24T12:19:51.714Z,22.00
2018-04-24T12:20:51.689Z,22.13
2018-04-24T12:21:51.693Z,22.08
2018-04-24T12:22:51.694Z,22.14
2018-04-24T12:23:51.706Z,22.22
2018-04-24T12:24:51.708Z,22.13
2018-04-24T12:25:51.714Z,22.22
2018-04-24T12:26:51.717Z,22.11
2018-04-24T12:27:51.729Z,22.10
2018-04-24T12:28:51.728Z,22.08
2018-04-24T12:29:51.732Z,22.02
2018-04-24T12:30:51.748Z,21.96
2018-04-24T12:31:51.742Z,21.99
2018-04-24T12:32:51.841Z,21.98
2018-04-24T12:33:51.838Z,21.91
2018-04-24T12:34:51.786Z,21.99
2018-04-24T12:35:52.452Z,21.98
2018-04-24T12:36:51.766Z,22.00
2018-04-24T12:37:51.778Z,21.99
2018-04-24T12:38:51.869Z,21.98
2018-04-24T12:39:51.784Z,21.88
2018-04-24T12:40:51.789Z,21.89
2018-04-24T12:41:51.799Z,21.88
2018-04-24T12:42:51.803Z,21.92
2018-04-24T12:43:51.812Z,21.96
2018-04-24T12:44:51.806Z,21.89
2018-04-24T12:45:51.810Z,21.89
2018-04-24T12:46:51.829Z,21.89
2018-04-24T12:47:51.822Z,21.89
2018-04-24T12:48:51.827Z,21.85
2018-04-24T12:49:51.830Z,21.91
2018-04-24T12:50:51.843Z,21.85
2018-04-24T12:51:51.940Z,21.88
2018-04-24T12:52:51.845Z,21.83